Time;durP1;ratioP1;P1;durP2;ratioP2;P2;SDS_P1;SDS_P2;PMS_P1;PMS_P2;Temp;Humidity;BMP_temperature;BMP_pressure;BME280_temperature;BME280_humidity;BME280_pressure;Samples;Min_cycle;Max_cycle;Signal;HPM_P1;HPM_P2
2021/11/05 00:01:14;;;;;;;13.07;9.00;;;7.50;95.50;;;;;;6158529;23;19990;-90
2021/11/05 00:03:40;;;;;;;13.85;8.80;;;7.50;95.40;;;;;;6157680;23;19985;-90
2021/11/05 00:06:06;;;;;;;16.48;9.35;;;7.40;95.40;;;;;;6146006;23;20002;-89
2021/11/05 00:08:34;;;;;;;11.02;8.25;;;7.40;95.30;;;;;;6159012;23;20008;-88
2021/11/05 00:11:00;;;;;;;11.27;8.63;;;7.30;95.20;;;;;;6158817;23;20064;-88
2021/11/05 00:13:25;;;;;;;9.52;8.07;;;7.30;95.20;;;;;;6134500;23;20006;-89
2021/11/05 00:15:51;;;;;;;8.82;7.93;;;7.20;95.20;;;;;;6134673;23;20022;-88
2021/11/05 00:18:17;;;;;;;8.65;7.85;;;7.20;95.20;;;;;;6133978;23;20096;-87
2021/11/05 00:20:43;;;;;;;8.68;7.88;;;7.20;95.20;;;;;;6134188;23;20089;-90
2021/11/05 00:23:20;;;;;;;9.18;7.85;;;7.20;95.20;;;;;;6159150;23;19998;-90
2021/11/05 00:25:46;;;;;;;8.50;7.65;;;7.10;95.10;;;;;;6160021;23;20074;-88
2021/11/05 00:28:21;;;;;;;7.65;6.93;;;7.10;95.00;;;;;;6133672;23;20010;-89
2021/11/05 00:30:47;;;;;;;8.65;7.43;;;7.00;95.00;;;;;;6133040;23;19997;-88
2021/11/05 00:33:13;;;;;;;7.70;6.93;;;7.00;94.90;;;;;;6162996;23;20039;-88
2021/11/05 00:35:39;;;;;;;9.13;8.07;;;6.90;95.10;;;;;;6137624;23;20008;-89
2021/11/05 00:38:04;;;;;;;7.82;7.03;;;6.90;94.80;;;;;;6189573;23;20012;-88
2021/11/05 00:40:33;;;;;;;7.75;6.68;;;6.80;94.80;;;;;;6164650;23;20097;-90
2021/11/05 00:43:02;;;;;;;8.75;6.70;;;6.80;94.80;;;;;;6164868;23;20004;-88
2021/11/05 00:45:37;;;;;;;7.97;7.18;;;6.80;94.80;;;;;;6165707;23;20419;-87
2021/11/05 00:48:05;;;;;;;6.88;6.18;;;6.80;94.80;;;;;;6142222;23;20013;-89
2021/11/05 00:50:31;;;;;;;8.82;7.10;;;6.70;94.90;;;;;;6164776;23;20001;-89
2021/11/05 00:52:57;;;;;;;7.82;6.80;;;6.80;94.90;;;;;;6164952;23;20032;-90
2021/11/05 00:55:25;;;;;;;8.38;6.55;;;6.70;94.90;;;;;;6164581;23;20004;-90
2021/11/05 00:57:53;;;;;;;8.90;7.32;;;6.70;95.00;;;;;;6164656;23;20359;-90
2021/11/05 01:00:20;;;;;;;8.90;6.50;;;6.70;95.00;;;;;;6163903;23;20427;-89
2021/11/05 01:02:46;;;;;;;8.80;6.80;;;6.70;95.00;;;;;;6165082;23;20005;-89
2021/11/05 01:05:13;;;;;;;9.15;6.53;;;6.70;95.00;;;;;;6191470;23;20005;-90
2021/11/05 01:07:39;;;;;;;7.43;6.00;;;6.70;94.90;;;;;;6165272;23;20013;-90
2021/11/05 01:10:07;;;;;;;6.82;6.13;;;6.60;94.90;;;;;;6140775;23;20095;-89
2021/11/05 01:12:36;;;;;;;8.18;6.32;;;6.60;94.90;;;;;;6166294;23;20005;-89
2021/11/05 01:15:01;;;;;;;7.40;6.07;;;6.60;94.90;;;;;;6191413;23;19997;-89
2021/11/05 01:17:36;;;;;;;9.10;6.35;;;6.60;94.90;;;;;;6165378;23;20490;-89
2021/11/05 01:20:05;;;;;;;8.48;6.30;;;6.50;94.80;;;;;;6191771;23;20032;-88
2021/11/05 01:22:31;;;;;;;7.55;6.20;;;6.50;94.80;;;;;;6165960;23;20004;-89
2021/11/05 01:25:00;;;;;;;9.25;6.40;;;6.50;94.80;;;;;;6142684;23;20005;-90
2021/11/05 01:27:25;;;;;;;7.93;6.18;;;6.50;94.80;;;;;;6157649;23;20016;-89
2021/11/05 01:29:57;;;;;;;8.75;6.20;;;6.40;94.80;;;;;;6164659;23;20073;-89
2021/11/05 01:32:23;;;;;;;7.00;5.35;;;6.40;94.80;;;;;;6181418;23;20014;-89
2021/11/05 01:34:52;;;;;;;9.10;6.57;;;6.40;94.80;;;;;;6184713;23;20000;-88
2021/11/05 01:37:18;;;;;;;7.65;5.95;;;6.40;94.80;;;;;;6183885;23;20002;-89
2021/11/05 01:39:43;;;;;;;6.88;5.93;;;6.40;94.80;;;;;;6157790;23;20001;-89
2021/11/05 01:42:09;;;;;;;8.52;6.30;;;6.30;94.80;;;;;;6178690;23;20012;-91
2021/11/05 01:44:35;;;;;;;8.82;6.25;;;6.30;94.80;;;;;;6160352;23;20312;-90
2021/11/05 01:47:02;;;;;;;9.48;6.40;;;6.30;94.90;;;;;;6158620;23;20064;-89
2021/11/05 01:49:28;;;;;;;8.57;6.45;;;6.30;94.90;;;;;;6157893;23;20012;-89
2021/11/05 01:51:55;;;;;;;8.50;6.18;;;6.30;94.90;;;;;;6159667;23;20028;-89
2021/11/05 01:54:22;;;;;;;7.82;6.22;;;6.40;95.00;;;;;;6159672;23;20002;-90
2021/11/05 01:56:50;;;;;;;9.80;6.28;;;6.30;95.00;;;;;;6160009;23;20036;-89
2021/11/05 01:59:28;;;;;;;8.10;6.18;;;6.30;95.10;;;;;;6159735;23;20423;-87
2021/11/05 02:02:00;;;;;;;10.07;6.15;;;6.40;95.10;;;;;;6159663;23;20021;-89
2021/11/05 02:04:29;;;;;;;8.63;6.13;;;6.40;95.10;;;;;;6160921;23;20001;-89
2021/11/05 02:06:58;;;;;;;10.23;6.75;;;6.40;95.20;;;;;;6159622;23;20006;-90
2021/11/05 02:09:29;;;;;;;10.52;6.13;;;6.40;95.20;;;;;;6134489;23;20002;-90
2021/11/05 02:12:00;;;;;;;8.43;6.30;;;6.40;95.20;;;;;;6159270;23;20008;-90
2021/11/05 02:14:27;;;;;;;8.52;6.28;;;6.40;95.20;;;;;;6159430;23;20005;-88
2021/11/05 02:16:58;;;;;;;8.23;6.13;;;6.40;95.10;;;;;;6157889;23;20060;-88
2021/11/05 02:19:27;;;;;;;;;;;6.40;95.10;;;;;;6158565;23;20076;-89
2021/11/05 02:21:55;;;;;;;7.57;5.28;;;6.30;95.10;;;;;;6158233;23;19901;-89
2021/11/05 02:24:41;;;;;;;10.25;5.45;;;6.30;95.10;;;;;;6158551;23;20389;-89
2021/11/05 02:27:09;;;;;;;9.50;6.05;;;6.30;95.10;;;;;;6159106;23;20086;-87
2021/11/05 02:29:36;;;;;;;8.02;5.82;;;6.30;95.10;;;;;;6158480;23;20002;-89
2021/11/05 02:32:03;;;;;;;9.30;6.03;;;6.20;95.00;;;;;;6163054;23;20056;-89
2021/11/05 02:34:32;;;;;;;7.45;5.70;;;6.20;95.00;;;;;;6163402;23;20298;-89
2021/11/05 02:36:58;;;;;;;6.45;5.13;;;6.20;95.00;;;;;;6190144;23;20486;-89
2021/11/05 02:39:24;;;;;;;6.30;4.68;;;6.20;95.00;;;;;;6164084;23;20004;-90
2021/11/05 02:41:52;;;;;;;5.90;5.00;;;6.20;95.10;;;;;;6164178;23;20328;-90
2021/11/05 02:44:23;;;;;;;8.13;5.10;;;6.20;95.10;;;;;;6162611;23;20028;-90
2021/11/05 02:46:51;;;;;;;6.90;4.78;;;6.20;95.10;;;;;;6140791;23;20005;-88
2021/11/05 02:49:17;;;;;;;6.80;4.25;;;6.20;95.10;;;;;;6189554;23;20028;-89
2021/11/05 02:51:46;;;;;;;6.05;4.78;;;6.20;95.10;;;;;;6163144;23;20032;-89
2021/11/05 02:54:16;;;;;;;6.35;4.50;;;6.20;95.10;;;;;;6163386;23;20005;-91
2021/11/05 02:56:42;;;;;;;5.93;4.47;;;6.10;95.10;;;;;;6189736;23;20040;-89
2021/11/05 02:59:08;;;;;;;6.45;4.30;;;6.10;95.20;;;;;;6166588;23;19997;-90
2021/11/05 03:01:36;;;;;;;7.50;4.50;;;6.10;95.20;;;;;;6212054;23;20008;-90
2021/11/05 03:04:08;;;;;;;7.32;4.60;;;6.20;95.20;;;;;;6188413;23;19989;-89
2021/11/05 03:06:40;;;;;;;6.03;4.45;;;6.20;95.20;;;;;;6214229;23;20013;-91
2021/11/05 03:09:12;;;;;;;7.32;4.10;;;6.20;95.20;;;;;;6213515;23;19992;-90
2021/11/05 03:11:38;;;;;;;4.90;4.03;;;6.20;95.20;;;;;;6176877;23;20024;-91
2021/11/05 03:14:05;;;;;;;6.70;4.35;;;6.20;95.30;;;;;;6163509;23;20035;-92
2021/11/05 03:16:31;;;;;;;5.30;4.00;;;6.10;95.20;;;;;;6164106;23;20005;-91
2021/11/05 03:18:57;;;;;;;6.35;3.67;;;6.20;95.20;;;;;;6163829;23;20039;-90
2021/11/05 03:21:23;;;;;;;6.30;3.97;;;6.20;95.20;;;;;;6163167;23;20493;-92
2021/11/05 03:23:59;;;;;;;7.72;4.10;;;6.10;95.20;;;;;;6163484;23;20079;-91
2021/11/05 03:26:25;;;;;;;5.05;4.13;;;6.20;95.20;;;;;;6163380;23;20008;-89
2021/11/05 03:28:51;;;;;;;5.38;3.85;;;6.10;95.20;;;;;;6163317;23;20020;-89
2021/11/05 03:31:17;;;;;;;5.65;3.30;;;6.20;95.30;;;;;;6162493;23;20020;-90
2021/11/05 03:33:44;;;;;;;5.45;3.45;;;6.20;95.30;;;;;;6163068;23;20339;-90
2021/11/05 03:36:09;;;;;;;5.40;3.63;;;6.10;95.20;;;;;;6162355;23;20001;-89
2021/11/05 03:38:35;;;;;;;5.18;3.75;;;6.10;95.20;;;;;;6163470;23;20005;-88
2021/11/05 03:41:01;;;;;;;4.57;3.22;;;6.10;95.20;;;;;;6163309;23;19997;-90
2021/11/05 03:43:29;;;;;;;5.38;3.28;;;6.10;95.20;;;;;;6162796;23;20004;-89
2021/11/05 03:45:54;;;;;;;7.38;3.63;;;6.10;95.20;;;;;;6163261;23;20004;-91
2021/11/05 03:48:20;;;;;;;5.95;3.47;;;6.10;95.20;;;;;;6163137;23;20001;-90
2021/11/05 03:50:46;;;;;;;5.30;3.30;;;6.00;95.20;;;;;;6139215;23;20028;-90
2021/11/05 03:53:12;;;;;;;4.78;3.08;;;6.00;95.10;;;;;;6139286;23;20060;-89
2021/11/05 03:55:37;;;;;;;4.53;3.53;;;6.00;95.10;;;;;;6163008;23;20435;-92
2021/11/05 03:58:06;;;;;;;4.53;2.85;;;5.90;95.00;;;;;;6163558;23;20450;-88
2021/11/05 04:00:32;;;;;;;4.18;3.10;;;5.90;95.00;;;;;;6139730;23;20028;-89
2021/11/05 04:02:57;;;;;;;4.10;3.08;;;5.90;95.00;;;;;;6163758;23;20435;-89
2021/11/05 04:05:23;;;;;;;4.65;3.00;;;5.90;95.00;;;;;;6164506;23;20005;-90
2021/11/05 04:07:51;;;;;;;4.47;2.80;;;5.80;94.90;;;;;;6163890;23;20001;-90
2021/11/05 04:10:17;;;;;;;4.70;3.13;;;5.80;94.90;;;;;;6163946;23;20008;-90
2021/11/05 04:12:48;;;;;;;4.75;3.00;;;5.80;94.90;;;;;;6163339;23;20013;-89
2021/11/05 04:15:13;;;;;;;4.43;3.20;;;5.70;94.90;;;;;;6165501;23;20005;-88
2021/11/05 04:17:39;;;;;;;4.10;2.67;;;5.70;94.90;;;;;;6164166;23;20085;-88
2021/11/05 04:20:06;;;;;;;6.13;2.97;;;5.70;94.90;;;;;;6191616;23;19997;-88
2021/11/05 04:22:32;;;;;;;4.22;2.78;;;5.70;94.90;;;;;;6165839;23;20423;-90
2021/11/05 04:24:58;;;;;;;4.50;3.00;;;5.70;94.90;;;;;;6141181;23;20135;-89
2021/11/05 04:27:32;;;;;;;4.30;2.50;;;5.60;94.90;;;;;;6164813;23;20001;-90
2021/11/05 04:29:58;;;;;;;3.70;2.75;;;5.70;95.00;;;;;;6170440;23;20001;-90
2021/11/05 04:32:24;;;;;;;3.03;2.70;;;5.70;95.00;;;;;;6189415;23;20019;-93
2021/11/05 04:34:51;;;;;;;6.18;2.88;;;5.70;95.10;;;;;;6189650;23;20013;-91
2021/11/05 04:37:16;;;;;;;5.45;3.22;;;5.70;95.10;;;;;;6189683;23;20053;-89
2021/11/05 04:39:42;;;;;;;4.10;2.85;;;5.70;95.10;;;;;;6179141;23;20013;-90
2021/11/05 04:42:08;;;;;;;4.28;2.97;;;5.70;95.10;;;;;;6166098;23;20052;-89
2021/11/05 04:44:34;;;;;;;4.82;3.30;;;5.70;95.10;;;;;;6165851;23;20044;-89
2021/11/05 04:47:02;;;;;;;6.38;3.47;;;5.70;95.10;;;;;;6164552;23;20001;-89
2021/11/05 04:49:28;;;;;;;6.40;3.20;;;5.70;95.10;;;;;;6190665;23;20023;-90
2021/11/05 04:52:02;;;;;;;5.65;3.35;;;5.70;95.10;;;;;;6164114;23;20029;-91
2021/11/05 04:54:30;;;;;;;6.88;3.92;;;5.70;95.10;;;;;;6165186;23;20005;-90
2021/11/05 04:56:56;;;;;;;5.20;3.25;;;5.70;95.10;;;;;;6140530;23;20020;-89
2021/11/05 04:59:31;;;;;;;4.75;3.95;;;5.70;95.10;;;;;;6165362;23;20005;-91
2021/11/05 05:01:59;;;;;;;6.40;4.30;;;5.70;95.10;;;;;;6191669;23;20005;-90
2021/11/05 05:04:33;;;;;;;6.75;4.32;;;5.70;95.10;;;;;;6165233;23;20001;-90
2021/11/05 05:07:02;;;;;;;6.45;4.75;;;5.70;95.10;;;;;;6141407;23;20343;-91
2021/11/05 05:09:30;;;;;;;6.45;5.20;;;5.70;95.10;;;;;;6164581;23;20005;-90
2021/11/05 05:12:03;;;;;;;6.35;4.88;;;5.70;95.10;;;;;;6165844;23;20434;-90
2021/11/05 05:14:34;;;;;;;6.50;5.32;;;5.70;95.20;;;;;;6191461;23;20005;-91
2021/11/05 05:17:05;;;;;;;11.57;5.90;;;5.70;95.20;;;;;;6191711;23;20017;-91
2021/11/05 05:19:35;;;;;;;9.13;5.65;;;5.70;95.10;;;;;;6164825;23;20008;-89
2021/11/05 05:22:04;;;;;;;7.13;5.47;;;5.60;95.10;;;;;;6140309;23;20013;-91
2021/11/05 05:24:29;;;;;;;8.32;5.60;;;5.70;95.10;;;;;;6164608;23;19997;-90
2021/11/05 05:26:55;;;;;;;9.80;5.80;;;5.60;95.10;;;;;;6163890;23;20072;-91
2021/11/05 05:29:24;;;;;;;7.40;6.15;;;5.70;95.20;;;;;;6164268;23;20035;-90
2021/11/05 05:31:52;;;;;;;8.52;6.15;;;5.60;95.10;;;;;;6159843;23;20339;-89
2021/11/05 05:34:20;;;;;;;8.60;5.80;;;5.60;95.10;;;;;;6160854;23;20132;-90
2021/11/05 05:36:46;;;;;;;7.20;5.78;;;5.60;95.10;;;;;;6159661;23;20014;-91
2021/11/05 05:39:20;;;;;;;7.93;5.40;;;5.70;95.20;;;;;;6159100;23;20297;-89
2021/11/05 05:42:07;;;;;;;7.63;5.57;;;5.60;95.10;;;;;;6158887;23;20006;-89
2021/11/05 05:44:34;;;;;;;7.38;5.40;;;5.60;95.10;;;;;;6136734;23;20013;-89
2021/11/05 05:47:05;;;;;;;7.88;5.40;;;5.60;95.10;;;;;;6158914;23;20006;-89
2021/11/05 05:49:31;;;;;;;5.95;5.10;;;5.60;95.10;;;;;;6159379;23;19998;-90
2021/11/05 05:51:57;;;;;;;7.65;6.15;;;5.60;95.10;;;;;;6159531;23;20008;-90
2021/11/05 05:57:10;;;;;;;8.63;5.50;;;5.60;95.10;;;;;;6043910;23;20099;-90
2021/11/05 05:59:48;;;;;;;8.25;5.40;;;5.60;95.10;;;;;;6142955;23;20006;-92
2021/11/05 06:02:45;;;;;;;9.93;6.05;;;5.60;95.10;;;;;;6161870;23;20005;-91
2021/11/05 06:08:33;;;;;;;6.75;5.85;;;5.60;95.20;;;;;;6124104;23;20021;-91
2021/11/05 06:11:01;;;;;;;5.95;5.13;;;5.60;95.20;;;;;;6077407;23;20010;-92
2021/11/05 06:13:28;;;;;;;7.57;5.50;;;5.60;95.20;;;;;;6076526;23;20010;-90
2021/11/05 06:16:13;;;;;;;;;;;;;;;;;;;;;
2021/11/05 06:18:53;;;;;;;7.50;5.63;;;5.60;95.30;;;;;;6100591;23;20094;-91
2021/11/05 06:21:36;;;;;;;8.05;5.40;;;5.60;95.30;;;;;;6099392;23;20026;-93
2021/11/05 06:24:02;;;;;;;6.53;5.10;;;5.60;95.30;;;;;;6076661;23;20111;-92
2021/11/05 06:26:46;;;;;;;6.93;5.63;;;5.60;95.30;;;;;;6076561;23;20007;-90
2021/11/05 06:29:12;;;;;;;9.40;5.75;;;5.60;95.30;;;;;;6077239;23;20006;-88
2021/11/05 06:31:41;;;;;;;8.77;6.18;;;5.60;95.30;;;;;;6150785;23;20044;-91
2021/11/05 06:34:15;;;;;;;7.32;5.38;;;5.60;95.30;;;;;;6134735;23;20005;-92
2021/11/05 06:36:47;;;;;;;7.40;5.30;;;5.60;95.30;;;;;;6159660;23;20072;-90
2021/11/05 06:39:15;;;;;;;5.93;4.95;;;5.60;95.30;;;;;;6159045;23;19998;-90
2021/11/05 06:41:44;;;;;;;6.47;4.75;;;5.60;95.30;;;;;;6136194;23;20001;-90
2021/11/05 06:44:15;;;;;;;7.55;5.43;;;5.50;95.20;;;;;;6160734;23;20505;-89
2021/11/05 06:46:45;;;;;;;6.63;5.35;;;5.50;95.20;;;;;;6159300;23;20446;-91
2021/11/05 06:49:11;;;;;;;9.35;6.05;;;5.60;95.30;;;;;;6160384;23;20005;-91
2021/11/05 06:51:37;;;;;;;7.80;5.57;;;5.50;95.30;;;;;;6158517;23;19997;-90
2021/11/05 06:54:03;;;;;;;7.03;4.85;;;5.50;95.30;;;;;;6135468;23;20010;-92
2021/11/05 06:56:29;;;;;;;7.90;4.78;;;5.50;95.30;;;;;;6158364;23;20013;-90
2021/11/05 06:59:05;;;;;;;6.85;4.70;;;5.50;95.30;;;;;;6160323;23;20004;-89
2021/11/05 07:02:08;;;;;;;7.65;4.38;;;5.50;95.30;;;;;;6114797;23;20085;-90
2021/11/05 07:04:46;;;;;;;7.15;4.35;;;5.50;95.40;;;;;;6157087;23;20005;-90
2021/11/05 07:07:36;;;;;;;6.43;4.43;;;5.50;95.40;;;;;;6135981;23;20388;-91
2021/11/05 07:10:05;;;;;;;5.95;3.97;;;5.50;95.40;;;;;;6159957;23;20458;-89
2021/11/05 07:12:33;;;;;;;8.48;4.43;;;5.50;95.40;;;;;;6135412;23;20001;-89
2021/11/05 07:15:10;;;;;;;6.10;4.60;;;5.50;95.40;;;;;;6160459;23;20009;-89
2021/11/05 07:20:46;;;;;;;4.90;3.92;;;5.50;95.50;;;;;;6132647;23;20044;-90
2021/11/05 07:23:24;;;;;;;5.15;4.03;;;5.50;95.50;;;;;;6159742;23;20009;-91
2021/11/05 07:26:11;;;;;;;5.43;3.85;;;5.50;95.50;;;;;;6157766;23;20016;-91
2021/11/05 07:39:30;;;;;;;6.45;3.45;;;5.60;95.50;;;;;;6167308;23;20458;-91
2021/11/05 07:42:17;;;;;;;6.05;4.18;;;5.60;95.50;;;;;;6159934;23;20365;-89
2021/11/05 07:44:48;;;;;;;5.22;3.83;;;5.70;95.60;;;;;;6140566;23;20009;-92
2021/11/05 07:47:27;;;;;;;6.97;3.47;;;5.70;95.60;;;;;;6164470;23;20009;-90
2021/11/05 07:50:02;;;;;;;5.85;3.90;;;5.70;95.60;;;;;;6141752;23;20009;-90
2021/11/05 07:52:36;;;;;;;4.88;3.42;;;5.80;95.60;;;;;;6164092;23;20100;-90
2021/11/05 07:55:04;;;;;;;7.93;3.78;;;5.80;95.60;;;;;;6163229;23;20008;-93
2021/11/05 07:57:40;;;;;;;;;;;;;;;;;;;;;
2021/11/05 08:00:35;;;;;;;6.50;3.55;;;5.90;95.60;;;;;;6129600;23;20054;-92
2021/11/05 08:03:06;;;;;;;4.85;3.22;;;5.90;95.60;;;;;;6104968;23;20034;-91
2021/11/05 08:05:32;;;;;;;5.10;3.83;;;6.00;95.60;;;;;;6144556;23;20013;-91
2021/11/05 08:13:59;;;;;;;4.97;3.35;;;6.10;95.60;;;;;;6168393;23;20036;-90
2021/11/05 08:16:52;;;;;;;6.28;3.60;;;6.20;95.70;;;;;;6163951;23;20093;-91
2021/11/05 08:19:20;;;;;;;5.88;4.10;;;6.30;95.70;;;;;;6157718;23;20093;-91
2021/11/05 08:21:54;;;;;;;3.95;3.35;;;6.30;95.70;;;;;;6164276;23;20096;-90
2021/11/05 08:24:27;;;;;;;6.07;3.78;;;6.40;95.70;;;;;;6164353;23;19997;-91
2021/11/05 08:27:07;;;;;;;4.22;3.80;;;6.50;95.70;;;;;;6163930;23;20083;-89
2021/11/05 08:33:02;;;;;;;29.63;19.42;;;6.60;95.80;;;;;;6189423;23;20055;-92
2021/11/05 08:35:33;;;;;;;18.92;12.93;;;6.70;95.80;;;;;;6163059;23;20055;-91
2021/11/05 08:38:15;;;;;;;13.48;9.57;;;6.80;95.80;;;;;;6163685;23;20005;-91
2021/11/05 08:40:46;;;;;;;10.70;6.93;;;6.80;95.80;;;;;;6142160;23;19986;-91
2021/11/05 08:47:02;;;;;;;5.28;4.63;;;7.00;95.80;;;;;;6190782;23;20037;-92
2021/11/05 08:49:52;;;;;;;6.53;4.25;;;7.00;95.80;;;;;;6164286;23;20008;-91
2021/11/05 08:55:35;;;;;;;6.50;3.60;;;7.20;95.90;;;;;;6190586;23;20088;-91
2021/11/05 08:58:32;;;;;;;6.97;3.80;;;7.30;95.90;;;;;;6183594;23;20009;-91
2021/11/05 09:01:03;;;;;;;6.18;3.40;;;7.40;95.90;;;;;;6173097;23;20009;-91
2021/11/05 09:03:33;;;;;;;;;;;7.50;95.90;;;;;;6190242;23;19992;-90
2021/11/05 09:06:09;;;;;;;4.57;3.22;;;7.60;96.00;;;;;;6187892;23;19913;-92
2021/11/05 09:08:43;;;;;;;5.30;3.33;;;7.70;96.00;;;;;;6189458;23;20009;-91
2021/11/05 09:11:10;;;;;;;5.38;3.17;;;7.70;96.00;;;;;;6154888;23;20009;-91
2021/11/05 09:13:38;;;;;;;5.30;3.17;;;7.80;96.00;;;;;;6166714;23;20052;-90
2021/11/05 09:16:16;;;;;;;5.63;3.33;;;7.90;96.10;;;;;;6165283;23;20331;-91
2021/11/05 09:18:45;;;;;;;4.75;3.35;;;8.00;96.10;;;;;;6118842;23;20443;-91
2021/11/05 09:21:16;;;;;;;5.82;3.03;;;8.00;96.10;;;;;;6165775;23;20431;-90
2021/11/05 09:23:45;;;;;;;5.32;3.28;;;8.10;96.20;;;;;;6165977;23;20009;-91
2021/11/05 09:26:49;;;;;;;;;;;;;;;;;;;;;
2021/11/05 09:29:23;;;;;;;5.30;3.08;;;8.30;96.30;;;;;;6125104;23;20089;-93
2021/11/05 09:31:56;;;;;;;4.60;2.85;;;8.40;96.30;;;;;;6192082;23;20434;-89
2021/11/05 09:34:32;;;;;;;;;;;;;;;;;;;;;
2021/11/05 09:37:45;;;;;;;6.88;3.88;;;8.50;96.30;;;;;;6100626;23;20380;-91
2021/11/05 09:40:23;;;;;;;3.97;3.25;;;8.60;96.30;;;;;;6076449;23;20053;-91
2021/11/05 09:43:13;;;;;;;5.68;3.30;;;8.70;96.30;;;;;;6076380;23;20002;-91
2021/11/05 09:45:55;;;;;;;5.80;3.28;;;8.70;96.20;;;;;;6076473;23;20002;-92
2021/11/05 09:55:14;;;;;;;5.88;3.55;;;8.90;96.30;;;;;;6043760;23;20468;-92
2021/11/05 09:57:40;;;;;;;5.03;3.50;;;9.00;96.30;;;;;;6163065;23;20002;-93
2021/11/05 10:00:14;;;;;;;8.13;3.53;;;9.00;96.30;;;;;;6168082;23;20009;-91
2021/11/05 10:02:47;;;;;;;5.85;3.63;;;9.20;96.60;;;;;;6172090;23;20008;-92
2021/11/05 10:05:18;;;;;;;6.43;3.40;;;9.20;96.40;;;;;;6171931;23;20009;-90
2021/11/05 10:08:03;;;;;;;7.85;3.80;;;9.30;96.40;;;;;;6171474;23;20006;-90
2021/11/05 10:11:18;;;;;;;9.52;3.45;;;9.40;96.50;;;;;;6174095;23;20028;-90
2021/11/05 10:14:20;;;;;;;5.68;3.22;;;9.50;96.50;;;;;;6157777;23;20084;-90
2021/11/05 10:17:09;;;;;;;6.20;3.30;;;9.60;96.50;;;;;;6171096;23;20018;-93
2021/11/05 10:20:10;;;;;;;;;;;;;;;;;;;;;
2021/11/05 10:25:50;;;;;;;;;;;;;;;;;;;;;
2021/11/05 10:28:25;;;;;;;6.13;3.33;;;9.90;96.40;;;;;;6172173;23;20025;-90
2021/11/05 10:31:06;;;;;;;;;;;;;;;;;;;;;
2021/11/05 10:34:01;;;;;;;;;;;;;;;;;;;;;
2021/11/05 10:36:32;;;;;;;5.50;3.05;;;10.10;96.40;;;;;;6170703;23;20363;-90
2021/11/05 10:39:04;;;;;;;5.40;3.30;;;10.10;96.30;;;;;;6172136;23;20001;-92
2021/11/05 10:41:36;;;;;;;7.95;2.97;;;10.20;96.30;;;;;;6183532;23;20053;-92
2021/11/05 10:51:17;;;;;;;4.30;3.10;;;10.30;96.20;;;;;;6101235;23;20044;-91
2021/11/05 10:53:43;;;;;;;5.25;2.70;;;10.30;96.20;;;;;;6076813;23;20002;-94
2021/11/05 10:56:14;;;;;;;4.90;3.00;;;10.40;96.20;;;;;;6099002;23;20543;-92
2021/11/05 11:02:08;;;;;;;5.38;2.58;;;10.50;96.10;;;;;;6100805;23;20006;-94
2021/11/05 11:04:39;;;;;;;8.45;2.95;;;10.60;96.10;;;;;;6053554;23;20070;-94
2021/11/05 11:07:17;;;;;;;;;;;;;;;;;;;;;
2021/11/05 11:10:20;;;;;;;6.82;2.85;;;10.70;96.10;;;;;;6099752;23;20066;-91
2021/11/05 11:16:13;;;;;;;;;;;;;;;;;;;;;
2021/11/05 11:19:08;;;;;;;5.55;3.00;;;10.90;96.00;;;;;;6153049;23;20045;-93
2021/11/05 11:21:46;;;;;;;6.15;2.88;;;11.00;96.10;;;;;;6119665;23;20094;-90
2021/11/05 11:24:34;;;;;;;4.82;2.70;;;11.10;96.00;;;;;;6159702;23;20001;-91
2021/11/05 11:30:37;;;;;;;7.47;3.40;;;11.40;96.00;;;;;;6161172;23;20020;-91
2021/11/05 11:33:06;;;;;;;7.22;2.72;;;11.50;95.80;;;;;;6159981;23;20296;-91
2021/11/05 11:35:50;;;;;;;5.28;2.30;;;11.50;95.80;;;;;;6159804;23;20008;-92
2021/11/05 11:38:37;;;;;;;9.07;5.78;;;11.60;95.80;;;;;;6167461;23;20020;-93
2021/11/05 11:41:11;;;;;;;12.90;5.40;;;11.70;95.70;;;;;;6164916;23;20005;-92
2021/11/05 11:43:48;;;;;;;16.88;9.75;;;11.80;95.70;;;;;;6141596;23;20057;-91
2021/11/05 11:46:32;;;;;;;17.10;11.32;;;11.80;95.50;;;;;;6164856;23;19997;-91
2021/11/05 11:52:19;;;;;;;24.80;15.57;;;11.90;95.40;;;;;;6169455;23;20132;-90
2021/11/05 11:55:34;;;;;;;8.10;5.00;;;12.00;95.30;;;;;;6162272;23;19989;-94
2021/11/05 11:58:35;;;;;;;8.27;2.97;;;12.00;95.10;;;;;;6190947;23;20001;-92
2021/11/05 12:01:36;;;;;;;4.95;2.30;;;12.00;95.00;;;;;;6143854;23;20009;-92
2021/11/05 12:04:08;;;;;;;3.55;1.52;;;12.00;94.90;;;;;;6168327;23;20493;-92
2021/11/05 12:07:09;;;;;;;5.90;1.67;;;12.00;94.80;;;;;;6164942;23;20368;-93
2021/11/05 12:09:41;;;;;;;3.30;1.70;;;12.00;94.80;;;;;;6086921;23;20033;-92
2021/11/05 12:12:25;;;;;;;3.85;1.55;;;12.00;94.80;;;;;;6165057;23;20001;-93
2021/11/05 12:15:03;;;;;;;4.70;1.60;;;12.00;94.80;;;;;;6190777;23;20028;-91
2021/11/05 12:18:01;;;;;;;3.65;1.70;;;12.00;94.80;;;;;;6163982;23;20380;-91
2021/11/05 12:20:37;;;;;;;6.18;1.73;;;12.10;94.70;;;;;;6107433;23;20435;-93
2021/11/05 12:23:22;;;;;;;;;;;;;;;;;;;;;
2021/11/05 12:25:58;;;;;;;4.18;1.40;;;12.10;94.60;;;;;;6211487;23;20323;-91
2021/11/05 12:28:42;;;;;;;6.80;1.42;;;12.10;94.60;;;;;;6175151;23;19996;-91
2021/11/05 12:34:39;;;;;;;4.03;1.00;;;12.10;94.40;;;;;;6189732;23;20028;-91
2021/11/05 12:37:25;;;;;;;1.98;1.08;;;12.10;94.30;;;;;;6164152;23;20427;-91
2021/11/05 12:43:33;;;;;;;;;;;;;;;;;;;;;
2021/11/05 12:46:26;;;;;;;4.38;0.98;;;12.10;94.20;;;;;;6192655;23;20029;-91
2021/11/05 12:55:26;;;;;;;2.95;1.13;;;12.20;93.90;;;;;;6170114;23;19906;-91
2021/11/05 12:58:18;;;;;;;3.78;0.68;;;12.10;93.80;;;;;;6160105;23;20017;-90
2021/11/05 13:01:03;;;;;;;2.97;0.80;;;12.10;93.70;;;;;;6165914;23;19989;-91
2021/11/05 13:07:05;;;;;;;2.97;1.00;;;12.10;93.50;;;;;;6190398;23;20005;-93
2021/11/05 13:16:35;;;;;;;2.25;0.70;;;12.00;93.00;;;;;;6190458;23;20005;-92
2021/11/05 13:32:40;;;;;;;7.28;1.50;;;12.00;93.50;;;;;;6073806;23;20468;-92
2021/11/05 13:35:29;;;;;;;2.08;0.60;;;12.00;93.20;;;;;;6048138;23;20006;-91
2021/11/05 13:38:07;;;;;;;2.92;0.60;;;12.00;93.00;;;;;;6070804;23;20346;-92
2021/11/05 13:44:16;;;;;;;;;;;;;;;;;;;;;
2021/11/05 13:47:24;;;;;;;2.05;0.63;;;12.00;92.60;;;;;;6043175;23;20086;-93
2021/11/05 13:56:56;;;;;;;;;;;;;;;;;;;;;
2021/11/05 14:03:56;;;;;;;;;;;;;;;;;;;;;
2021/11/05 14:06:46;;;;;;;3.25;0.70;;;12.00;91.80;;;;;;6016485;23;20062;-91
2021/11/05 14:10:07;;;;;;;1.95;0.60;;;12.10;91.90;;;;;;6099359;23;20002;-91
2021/11/05 14:16:22;;;;;;;3.38;0.88;;;12.00;91.90;;;;;;5993211;23;20015;-94
2021/11/05 14:28:41;;;;;;;1.60;0.65;;;12.00;92.20;;;;;;5986879;24;20019;-90
2021/11/05 14:31:25;;;;;;;;;;;;;;;;;;;;;
2021/11/05 14:34:29;;;;;;;1.48;0.50;;;12.00;92.30;;;;;;6140570;23;20065;-90
2021/11/05 14:40:30;;;;;;;;;;;;;;;;;;;;;
2021/11/05 14:43:24;;;;;;;2.60;0.70;;;12.00;92.20;;;;;;6191797;23;19927;-92
2021/11/05 14:49:43;;;;;;;6.40;2.40;;;12.00;92.00;;;;;;6191770;23;20012;-91
2021/11/05 15:00:01;;;;;;;3.25;0.90;;;11.90;92.20;;;;;;6045676;23;20046;-91
2021/11/05 15:02:44;;;;;;;3.70;0.93;;;11.90;92.60;;;;;;6042662;23;20011;-93
2021/11/05 15:05:32;;;;;;;3.35;0.80;;;11.80;92.40;;;;;;6042485;23;20003;-92
2021/11/05 15:08:37;;;;;;;1.67;0.50;;;11.80;92.50;;;;;;6164117;23;20005;-93
2021/11/05 15:14:38;;;;;;;1.70;0.63;;;11.80;92.60;;;;;;6191082;23;20012;-90
2021/11/05 15:17:15;;;;;;;1.15;0.70;;;11.80;92.70;;;;;;6139989;23;20020;-91
2021/11/05 15:29:41;;;;;;;;;;;;;;;;;;;;;
2021/11/05 15:35:41;;;;;;;;;;;;;;;;;;;;;
2021/11/05 15:38:09;;;;;;;3.50;1.63;;;11.90;93.00;;;;;;6172762;23;20043;-92
2021/11/05 15:41:18;;;;;;;;;;;;;;;;;;;;;
2021/11/05 15:49:57;;;;;;;3.17;0.82;;;11.70;93.20;;;;;;6166230;23;19889;-92
2021/11/05 16:23:27;;;;;;;4.70;1.58;;;10.90;93.50;;;;;;5933039;24;19910;-92
2021/11/05 16:35:35;;;;;;;;;;;;;;;;;;;;;
2021/11/05 16:45:21;;;;;;;4.10;2.03;;;10.80;93.90;;;;;;5905160;24;20246;-93
2021/11/05 16:51:40;;;;;;;;;;;;;;;;;;;;;
2021/11/05 16:54:29;;;;;;;4.25;1.80;;;10.80;94.10;;;;;;5960907;23;20080;-92
2021/11/05 17:03:54;;;;;;;;;;;10.80;94.10;;;;;;5959943;23;20076;-92
2021/11/05 17:06:40;;;;;;;;;;;;;;;;;;;;;
2021/11/05 17:09:32;;;;;;;6.30;2.40;;;10.70;94.10;;;;;;5959818;23;20004;-91
2021/11/05 17:12:00;;;;;;;3.92;2.00;;;10.70;94.20;;;;;;6008012;23;20024;-91
2021/11/05 17:34:38;;;;;;;9.52;4.00;;;10.80;94.00;;;;;;5993743;23;20077;-89
2021/11/05 17:37:09;;;;;;;8.43;3.90;;;10.70;93.90;;;;;;6010549;23;20020;-93
2021/11/05 17:50:06;;;;;;;;;;;;;;;;;;;;;
2021/11/05 17:56:09;;;;;;;7.45;2.65;;;10.70;93.80;;;;;;5905510;23;20021;-91
2021/11/05 18:02:05;;;;;;;;;;;10.60;93.80;;;;;;5926801;23;20028;-90
2021/11/05 18:11:35;;;;;;;8.38;3.97;;;10.60;93.70;;;;;;5987213;24;19991;-91
2021/11/05 18:14:27;;;;;;;6.72;3.35;;;10.60;93.80;;;;;;6038904;23;20013;-89
2021/11/05 18:24:03;;;;;;;8.55;3.70;;;10.70;93.30;;;;;;6155829;23;20009;-92
2021/11/05 18:26:42;;;;;;;;;;;;;;;;;;;;;
2021/11/05 18:36:00;;;;;;;2.88;1.27;;;10.60;93.30;;;;;;6092540;23;19923;-91
2021/11/05 18:39:04;;;;;;;3.85;1.80;;;10.60;93.30;;;;;;6165126;23;20033;-91
2021/11/05 18:51:57;;;;;;;5.65;2.28;;;10.50;93.30;;;;;;6072351;23;20078;-90
2021/11/05 18:57:47;;;;;;;6.05;2.53;;;10.50;93.20;;;;;;6058183;23;20025;-91
2021/11/05 19:00:34;;;;;;;;;;;;;;;;;;;;;
2021/11/05 19:03:27;;;;;;;5.38;1.70;;;10.50;93.20;;;;;;6071514;23;20434;-91